MiSS Sydney — WDH2300 — position and weather

sailwx.info

Track history (hours):
 
Tides and Currents Weather Stations Pressure Air Temp Water Temp Dewpoint Dewpoint Depression Visibility Wind Speed Wind Dir Waves Ship Positions

MiSS Sydney

Owner: Broussard Brothers, Inc., Abbeville, LA. More information available from US FCC via Universal Licensing System and Coast Guard Vessel Documentation Center.

Last reported at 2018-Feb-22 17:30 UTC. Time now 2018-Feb-22 19:32 UTC.
Position N 29°34' W 090°33'.

Length 21 m; draft 2.5 m.

Type: Towing. MMSI: 367596190.

Date/timePositionNaut miles runAvg speedWind from/ knotsBaromVisibWave heightAir tempDewpointWater temp
2018-Feb-22 17:30N 29°34' W 090°33'2 4.3
2018-Feb-22 16:58N 29°35' W 090°36'2 4.0
2018-Feb-22 16:30N 29°35' W 090°38'2 4.2
2018-Feb-22 16:00N 29°36' W 090°40'2 3.9
2018-Feb-22 15:30N 29°37' W 090°42'2 3.3
2018-Feb-22 15:00N 29°35' W 090°43'2 3.1
2018-Feb-22 14:30N 29°34' W 090°44'1 1.4
2018-Feb-22 14:00N 29°34' W 090°44'0 0.0
2018-Feb-22 13:31N 29°34' W 090°44'0 0.3
2018-Feb-22 13:01N 29°34' W 090°45'2 4.6
2018-Feb-22 12:31N 29°32' W 090°46'3 4.9
2018-Feb-22 12:00N 29°32' W 090°49'60 1.4
2018-Feb-20 18:05N 29°51' W 091°55'1 6.8
2018-Feb-20 18:00N 29°51' W 091°55'4 7.0
2018-Feb-20 17:29N 29°50' W 091°59'3 7.1
2018-Feb-20 17:00N 29°49' W 092°03'4 7.4
2018-Feb-20 16:30N 29°47' W 092°07'3 6.1
2018-Feb-20 16:01N 29°47' W 092°10'0 0.1
2018-Feb-20 15:30N 29°47' W 092°10'0 0.0
2018-Feb-20 15:01N 29°47' W 092°10'0 0.0
2018-Feb-20 14:30N 29°47' W 092°10'0 0.0
2018-Feb-20 14:01N 29°47' W 092°10'0 0.0
2018-Feb-20 13:30N 29°47' W 092°10'0 0.0
2018-Feb-20 13:00N 29°47' W 092°10'0 0.4
2018-Feb-20 12:31N 29°47' W 092°10'1 1.5
2018-Feb-20 12:00N 29°47' W 092°11'0 0.0
2018-Feb-19 23:35N 29°47' W 092°11'0 0.2
2018-Feb-19 23:30N 29°47' W 092°11'0 0.0
2018-Feb-19 23:01N 29°47' W 092°11'0 0.0
2018-Feb-19 22:30N 29°47' W 092°11'1 1.7
2018-Feb-19 22:01N 29°47' W 092°10'0 0.3
2018-Feb-19 21:31N 29°47' W 092°10'3 5.5
2018-Feb-19 21:01N 29°49' W 092°08'1 1.3
2018-Feb-19 20:31N 29°49' W 092°08'0 0.3
2018-Feb-19 19:59N 29°49' W 092°08'0 0.0
2018-Feb-19 19:30N 29°49' W 092°08'0 0.0
2018-Feb-19 18:53N 29°49' W 092°08'0 0.0
2018-Feb-19 18:20N 29°49' W 092°08'0 0.0
2018-Feb-19 17:57N 29°49' W 092°08'0 0.0
2018-Feb-19 17:26N 29°49' W 092°08'0 0.0
2018-Feb-19 16:59N 29°49' W 092°08'0 0.0
2018-Feb-19 16:24N 29°49' W 092°08'0 0.0
2018-Feb-19 15:53N 29°49' W 092°08'0 0.0
2018-Feb-19 13:56N 29°49' W 092°08'0 0.0
2018-Feb-19 13:29N 29°49' W 092°08'0 0.0
2018-Feb-19 13:01N 29°49' W 092°08'2 3.2
2018-Feb-19 12:30N 29°48' W 092°08'2 4.3
2018-Feb-19 12:01N 29°47' W 092°10'2 3.0
2018-Feb-19 11:30N 29°47' W 092°09'3 7.0
2018-Feb-19 11:01N 29°48' W 092°05'6 0.1
2018-Feb-17 16:39N 29°50' W 091°59'1 7.1
2018-Feb-17 16:30N 29°50' W 091°60'4 7.3
2018-Feb-17 16:00N 29°49' W 092°04'4 7.2
2018-Feb-17 15:30N 29°47' W 092°08'3 5.1
2018-Feb-17 15:00N 29°47' W 092°10'0 0.1
2018-Feb-17 14:30N 29°47' W 092°10'0 0.3
2018-Feb-17 14:00N 29°47' W 092°11'1 1.4
2018-Feb-17 13:30N 29°47' W 092°11'1 1.8
2018-Feb-17 13:00N 29°47' W 092°10'0 0.0
2018-Feb-17 12:30N 29°47' W 092°10'0 0.0
2018-Feb-17 12:00N 29°47' W 092°10'0 0.0
2018-Feb-17 11:30N 29°47' W 092°10'0 0.0
2018-Feb-17 11:00N 29°47' W 092°10'0 0.0
2018-Feb-17 10:30N 29°47' W 092°10'0 0.0
2018-Feb-17 10:00N 29°47' W 092°10'0 0.0
2018-Feb-17 09:30N 29°47' W 092°10'0 0.0
2018-Feb-17 09:00N 29°47' W 092°10'0 0.0
2018-Feb-17 08:30N 29°47' W 092°10'0 0.0
2018-Feb-17 08:00N 29°47' W 092°10'0 0.0
2018-Feb-17 07:30N 29°47' W 092°10'0 0.1
2018-Feb-17 07:01N 29°47' W 092°10'3 6.2
2018-Feb-17 06:30N 29°48' W 092°07'3 6.6
2018-Feb-17 06:00N 29°49' W 092°03'5 0.3
2018-Feb-16 14:06N 29°50' W 091°57'1 7.7
2018-Feb-16 13:56N 29°50' W 091°59'3 7.9
2018-Feb-16 13:30N 29°49' W 092°02'4 7.8
2018-Feb-16 13:00N 29°48' W 092°06'4 7.5
2018-Feb-16 12:30N 29°47' W 092°11'1 1.3
2018-Feb-16 11:59N 29°47' W 092°11'0 0.0
2018-Feb-16 11:30N 29°47' W 092°11'0 0.0
2018-Feb-16 11:00N 29°47' W 092°11'0 0.0
2018-Feb-16 10:30N 29°47' W 092°11'0 0.0
2018-Feb-16 09:59N 29°47' W 092°11'0 0.0
2018-Feb-16 09:30N 29°47' W 092°11'0 0.0
2018-Feb-16 08:59N 29°47' W 092°11'0 0.0
2018-Feb-16 08:30N 29°47' W 092°11'0 0.0
2018-Feb-16 08:00N 29°47' W 092°11'0 0.0
2018-Feb-16 07:29N 29°47' W 092°11'0 0.0
2018-Feb-16 07:00N 29°47' W 092°11'0 0.0
2018-Feb-16 06:30N 29°47' W 092°11'0 0.0
2018-Feb-16 06:00N 29°47' W 092°11'0 0.0
2018-Feb-16 05:30N 29°47' W 092°11'0 0.0
2018-Feb-16 05:00N 29°47' W 092°11'0 0.0
2018-Feb-16 04:30N 29°47' W 092°11'0 0.0
2018-Feb-16 04:00N 29°47' W 092°11'0 0.0
2018-Feb-16 03:30N 29°47' W 092°11'0 0.0
2018-Feb-16 03:00N 29°47' W 092°11'0 0.0
2018-Feb-16 02:30N 29°47' W 092°11'0 0.0
2018-Feb-16 02:00N 29°47' W 092°11'0 0.0
2018-Feb-16 01:30N 29°47' W 092°11'0 0.0
2018-Feb-16 01:00N 29°47' W 092°11'0 0.0
2018-Feb-16 00:30N 29°47' W 092°11'0 0.0
2018-Feb-16 00:00N 29°47' W 092°11'0 0.0
2018-Feb-15 23:30N 29°47' W 092°11'0 0.0
2018-Feb-15 23:00N 29°47' W 092°11'0 0.0
2018-Feb-15 22:30N 29°47' W 092°11'1 1.6
2018-Feb-15 22:00N 29°47' W 092°10'3 5.5
2018-Feb-15 21:31N 29°48' W 092°08'1 1.7
2018-Feb-15 20:58N 29°49' W 092°08'0 0.0
2018-Feb-15 20:29N 29°49' W 092°08'0 0.0
2018-Feb-15 20:00N 29°49' W 092°08'0 0.0
2018-Feb-15 19:30N 29°49' W 092°08'0 0.0
2018-Feb-15 18:58N 29°49' W 092°08'0 0.0
2018-Feb-15 18:27N 29°49' W 092°08'0 0.0
2018-Feb-15 17:55N 29°49' W 092°08'0 0.0
2018-Feb-15 17:23N 29°49' W 092°08'0 0.0
2018-Feb-15 17:00N 29°49' W 092°08'0 0.0
2018-Feb-15 13:19N 29°49' W 092°08'0 0.0
2018-Feb-15 13:00N 29°49' W 092°08'0 0.0
2018-Feb-15 12:30N 29°49' W 092°08'0 0.1
2018-Feb-15 12:00N 29°49' W 092°08'2 4.8
2018-Feb-15 11:30N 29°47' W 092°09'2 4.1
2018-Feb-15 10:59N 29°47' W 092°11'0 0.0
2018-Feb-15 10:30N 29°47' W 092°11'0 0.0
2018-Feb-15 10:00N 29°47' W 092°11'0 0.0
2018-Feb-15 09:30N 29°47' W 092°11'0 0.0
2018-Feb-15 08:58N 29°47' W 092°11'0 0.0
2018-Feb-15 08:30N 29°47' W 092°11'0 0.0
2018-Feb-15 08:00N 29°47' W 092°11'0 0.0
2018-Feb-15 07:30N 29°47' W 092°11'0 0.0
2018-Feb-15 07:00N 29°47' W 092°11'0 0.0
2018-Feb-15 06:30N 29°47' W 092°11'0 0.0
2018-Feb-15 06:00N 29°47' W 092°11'0 0.0
2018-Feb-15 05:30N 29°47' W 092°11'0 0.0
2018-Feb-15 05:00N 29°47' W 092°11'0 0.0
2018-Feb-15 04:30N 29°47' W 092°11'0 0.0
2018-Feb-15 04:00N 29°47' W 092°11'0 0.0
2018-Feb-15 03:30N 29°47' W 092°11'0 0.0
2018-Feb-15 03:00N 29°47' W 092°11'0 0.0
2018-Feb-15 02:30N 29°47' W 092°11'0 0.0
2018-Feb-15 02:00N 29°47' W 092°11'0 0.0
2018-Feb-15 01:30N 29°47' W 092°11'0 0.0
2018-Feb-15 01:00N 29°47' W 092°11'0 0.0
2018-Feb-15 00:29N 29°47' W 092°11'0 0.0
2018-Feb-15 00:00N 29°47' W 092°11'0 0.0
2018-Feb-14 23:30N 29°47' W 092°11'0 0.0
2018-Feb-14 23:00N 29°47' W 092°11'0 0.0
2018-Feb-14 22:30N 29°47' W 092°11'1 2.3
2018-Feb-14 22:00N 29°47' W 092°10'3 5.4
2018-Feb-14 21:30N 29°49' W 092°08'0 0.2
2018-Feb-14 18:42N 29°49' W 092°08'0 0.0
2018-Feb-14 18:27N 29°49' W 092°08'0 0.0
2018-Feb-14 17:42N 29°49' W 092°08'0 0.0
2018-Feb-14 17:30N 29°49' W 092°08'0 0.0
2018-Feb-14 16:59N 29°49' W 092°08'0 0.0
2018-Feb-14 16:30N 29°49' W 092°08'0 0.0
2018-Feb-14 16:00N 29°49' W 092°08'0 0.0
2018-Feb-14 15:30N 29°49' W 092°08'0 0.0
2018-Feb-14 14:59N 29°49' W 092°08'0 0.0
2018-Feb-14 14:30N 29°49' W 092°08'0 0.0
2018-Feb-14 14:00N 29°49' W 092°08'0 0.0
2018-Feb-14 13:30N 29°49' W 092°08'0 0.0
2018-Feb-14 13:00N 29°49' W 092°08'2 3.9
2018-Feb-14 12:31N 29°48' W 092°09'2 4.7
2018-Feb-14 12:00N 29°47' W 092°11'0 0.0
2018-Feb-14 11:30N 29°47' W 092°11'0 0.0
2018-Feb-14 11:00N 29°47' W 092°11'0 0.0
2018-Feb-14 10:30N 29°47' W 092°11'0 0.0
2018-Feb-14 10:00N 29°47' W 092°11'0 0.0
2018-Feb-14 09:30N 29°47' W 092°11'0 0.0
2018-Feb-14 09:00N 29°47' W 092°11'0 0.0
2018-Feb-14 08:30N 29°47' W 092°11'0 0.0
2018-Feb-14 08:00N 29°47' W 092°11'0 0.0
2018-Feb-14 07:30N 29°47' W 092°11'0 0.0
2018-Feb-14 07:00N 29°47' W 092°11'0 0.0
2018-Feb-14 06:29N 29°47' W 092°11'0 0.0
2018-Feb-14 06:00N 29°47' W 092°11'0 0.0
2018-Feb-14 05:30N 29°47' W 092°11'0 0.0
2018-Feb-14 05:00N 29°47' W 092°11'0 0.0
2018-Feb-14 04:30N 29°47' W 092°11'  
Track history (hours):
 
Tides and Currents Weather Stations Pressure Air Temp Water Temp Dewpoint Dewpoint Depression Visibility Wind Speed Wind Dir Waves Ship Positions

MiSS Sydney

Owner: Broussard Brothers, Inc., Abbeville, LA. More information available from US FCC via Universal Licensing System and Coast Guard Vessel Documentation Center.

Last reported at 2018-Feb-22 17:30 UTC. Time now 2018-Feb-22 19:32 UTC.
Position N 29°34' W 090°33'.

Length 21 m; draft 2.5 m.

Type: Towing. MMSI: 367596190.

Date/timePositionNaut miles runAvg speedWind from/ knotsBaromVisibWave heightAir tempDewpointWater temp
2018-Feb-22 17:30N 29°34' W 090°33'2 4.3
2018-Feb-22 16:58N 29°35' W 090°36'2 4.0
2018-Feb-22 16:30N 29°35' W 090°38'2 4.2
2018-Feb-22 16:00N 29°36' W 090°40'2 3.9
2018-Feb-22 15:30N 29°37' W 090°42'2 3.3
2018-Feb-22 15:00N 29°35' W 090°43'2 3.1
2018-Feb-22 14:30N 29°34' W 090°44'1 1.4
2018-Feb-22 14:00N 29°34' W 090°44'0 0.0
2018-Feb-22 13:31N 29°34' W 090°44'0 0.3
2018-Feb-22 13:01N 29°34' W 090°45'2 4.6
2018-Feb-22 12:31N 29°32' W 090°46'3 4.9
2018-Feb-22 12:00N 29°32' W 090°49'60 1.4
2018-Feb-20 18:05N 29°51' W 091°55'1 6.8
2018-Feb-20 18:00N 29°51' W 091°55'4 7.0
2018-Feb-20 17:29N 29°50' W 091°59'3 7.1
2018-Feb-20 17:00N 29°49' W 092°03'4 7.4
2018-Feb-20 16:30N 29°47' W 092°07'3 6.1
2018-Feb-20 16:01N 29°47' W 092°10'0 0.1
2018-Feb-20 15:30N 29°47' W 092°10'0 0.0
2018-Feb-20 15:01N 29°47' W 092°10'0 0.0
2018-Feb-20 14:30N 29°47' W 092°10'0 0.0
2018-Feb-20 14:01N 29°47' W 092°10'0 0.0
2018-Feb-20 13:30N 29°47' W 092°10'0 0.0
2018-Feb-20 13:00N 29°47' W 092°10'0 0.4
2018-Feb-20 12:31N 29°47' W 092°10'1 1.5
2018-Feb-20 12:00N 29°47' W 092°11'0 0.0
2018-Feb-19 23:35N 29°47' W 092°11'0 0.2
2018-Feb-19 23:30N 29°47' W 092°11'0 0.0
2018-Feb-19 23:01N 29°47' W 092°11'0 0.0
2018-Feb-19 22:30N 29°47' W 092°11'1 1.7
2018-Feb-19 22:01N 29°47' W 092°10'0 0.3
2018-Feb-19 21:31N 29°47' W 092°10'3 5.5
2018-Feb-19 21:01N 29°49' W 092°08'1 1.3
2018-Feb-19 20:31N 29°49' W 092°08'0 0.3
2018-Feb-19 19:59N 29°49' W 092°08'0 0.0
2018-Feb-19 19:30N 29°49' W 092°08'0 0.0
2018-Feb-19 18:53N 29°49' W 092°08'0 0.0
2018-Feb-19 18:20N 29°49' W 092°08'0 0.0
2018-Feb-19 17:57N 29°49' W 092°08'0 0.0
2018-Feb-19 17:26N 29°49' W 092°08'0 0.0
2018-Feb-19 16:59N 29°49' W 092°08'0 0.0
2018-Feb-19 16:24N 29°49' W 092°08'0 0.0
2018-Feb-19 15:53N 29°49' W 092°08'0 0.0
2018-Feb-19 13:56N 29°49' W 092°08'0 0.0
2018-Feb-19 13:29N 29°49' W 092°08'0 0.0
2018-Feb-19 13:01N 29°49' W 092°08'2 3.2
2018-Feb-19 12:30N 29°48' W 092°08'2 4.3
2018-Feb-19 12:01N 29°47' W 092°10'2 3.0
2018-Feb-19 11:30N 29°47' W 092°09'3 7.0
2018-Feb-19 11:01N 29°48' W 092°05'6 0.1
2018-Feb-17 16:39N 29°50' W 091°59'1 7.1
2018-Feb-17 16:30N 29°50' W 091°60'4 7.3
2018-Feb-17 16:00N 29°49' W 092°04'4 7.2
2018-Feb-17 15:30N 29°47' W 092°08'3 5.1
2018-Feb-17 15:00N 29°47' W 092°10'0 0.1
2018-Feb-17 14:30N 29°47' W 092°10'0 0.3
2018-Feb-17 14:00N 29°47' W 092°11'1 1.4
2018-Feb-17 13:30N 29°47' W 092°11'1 1.8
2018-Feb-17 13:00N 29°47' W 092°10'0 0.0
2018-Feb-17 12:30N 29°47' W 092°10'0 0.0
2018-Feb-17 12:00N 29°47' W 092°10'0 0.0
2018-Feb-17 11:30N 29°47' W 092°10'0 0.0
2018-Feb-17 11:00N 29°47' W 092°10'0 0.0
2018-Feb-17 10:30N 29°47' W 092°10'0 0.0
2018-Feb-17 10:00N 29°47' W 092°10'0 0.0
2018-Feb-17 09:30N 29°47' W 092°10'0 0.0
2018-Feb-17 09:00N 29°47' W 092°10'0 0.0
2018-Feb-17 08:30N 29°47' W 092°10'0 0.0
2018-Feb-17 08:00N 29°47' W 092°10'0 0.0
2018-Feb-17 07:30N 29°47' W 092°10'0 0.1
2018-Feb-17 07:01N 29°47' W 092°10'3 6.2
2018-Feb-17 06:30N 29°48' W 092°07'3 6.6
2018-Feb-17 06:00N 29°49' W 092°03'5 0.3
2018-Feb-16 14:06N 29°50' W 091°57'1 7.7
2018-Feb-16 13:56N 29°50' W 091°59'3 7.9
2018-Feb-16 13:30N 29°49' W 092°02'4 7.8
2018-Feb-16 13:00N 29°48' W 092°06'4 7.5
2018-Feb-16 12:30N 29°47' W 092°11'1 1.3
2018-Feb-16 11:59N 29°47' W 092°11'0 0.0
2018-Feb-16 11:30N 29°47' W 092°11'0 0.0
2018-Feb-16 11:00N 29°47' W 092°11'0 0.0
2018-Feb-16 10:30N 29°47' W 092°11'0 0.0
2018-Feb-16 09:59N 29°47' W 092°11'0 0.0
2018-Feb-16 09:30N 29°47' W 092°11'0 0.0
2018-Feb-16 08:59N 29°47' W 092°11'0 0.0
2018-Feb-16 08:30N 29°47' W 092°11'0 0.0
2018-Feb-16 08:00N 29°47' W 092°11'0 0.0
2018-Feb-16 07:29N 29°47' W 092°11'0 0.0
2018-Feb-16 07:00N 29°47' W 092°11'0 0.0
2018-Feb-16 06:30N 29°47' W 092°11'0 0.0
2018-Feb-16 06:00N 29°47' W 092°11'0 0.0
2018-Feb-16 05:30N 29°47' W 092°11'0 0.0
2018-Feb-16 05:00N 29°47' W 092°11'0 0.0
2018-Feb-16 04:30N 29°47' W 092°11'0 0.0
2018-Feb-16 04:00N 29°47' W 092°11'0 0.0
2018-Feb-16 03:30N 29°47' W 092°11'0 0.0
2018-Feb-16 03:00N 29°47' W 092°11'0 0.0
2018-Feb-16 02:30N 29°47' W 092°11'0 0.0
2018-Feb-16 02:00N 29°47' W 092°11'0 0.0
2018-Feb-16 01:30N 29°47' W 092°11'0 0.0
2018-Feb-16 01:00N 29°47' W 092°11'0 0.0
2018-Feb-16 00:30N 29°47' W 092°11'0 0.0
2018-Feb-16 00:00N 29°47' W 092°11'0 0.0
2018-Feb-15 23:30N 29°47' W 092°11'0 0.0
2018-Feb-15 23:00N 29°47' W 092°11'0 0.0
2018-Feb-15 22:30N 29°47' W 092°11'1 1.6
2018-Feb-15 22:00N 29°47' W 092°10'3 5.5
2018-Feb-15 21:31N 29°48' W 092°08'1 1.7
2018-Feb-15 20:58N 29°49' W 092°08'0 0.0
2018-Feb-15 20:29N 29°49' W 092°08'0 0.0
2018-Feb-15 20:00N 29°49' W 092°08'0 0.0
2018-Feb-15 19:30N 29°49' W 092°08'0 0.0
2018-Feb-15 18:58N 29°49' W 092°08'0 0.0
2018-Feb-15 18:27N 29°49' W 092°08'0 0.0
2018-Feb-15 17:55N 29°49' W 092°08'0 0.0
2018-Feb-15 17:23N 29°49' W 092°08'0 0.0
2018-Feb-15 17:00N 29°49' W 092°08'0 0.0
2018-Feb-15 13:19N 29°49' W 092°08'0 0.0
2018-Feb-15 13:00N 29°49' W 092°08'0 0.0
2018-Feb-15 12:30N 29°49' W 092°08'0 0.1
2018-Feb-15 12:00N 29°49' W 092°08'2 4.8
2018-Feb-15 11:30N 29°47' W 092°09'2 4.1
2018-Feb-15 10:59N 29°47' W 092°11'0 0.0
2018-Feb-15 10:30N 29°47' W 092°11'0 0.0
2018-Feb-15 10:00N 29°47' W 092°11'0 0.0
2018-Feb-15 09:30N 29°47' W 092°11'0 0.0
2018-Feb-15 08:58N 29°47' W 092°11'0 0.0
2018-Feb-15 08:30N 29°47' W 092°11'0 0.0
2018-Feb-15 08:00N 29°47' W 092°11'0 0.0
2018-Feb-15 07:30N 29°47' W 092°11'0 0.0
2018-Feb-15 07:00N 29°47' W 092°11'0 0.0
2018-Feb-15 06:30N 29°47' W 092°11'0 0.0
2018-Feb-15 06:00N 29°47' W 092°11'0 0.0
2018-Feb-15 05:30N 29°47' W 092°11'0 0.0
2018-Feb-15 05:00N 29°47' W 092°11'0 0.0
2018-Feb-15 04:30N 29°47' W 092°11'0 0.0
2018-Feb-15 04:00N 29°47' W 092°11'0 0.0
2018-Feb-15 03:30N 29°47' W 092°11'0 0.0
2018-Feb-15 03:00N 29°47' W 092°11'0 0.0
2018-Feb-15 02:30N 29°47' W 092°11'0 0.0
2018-Feb-15 02:00N 29°47' W 092°11'0 0.0
2018-Feb-15 01:30N 29°47' W 092°11'0 0.0
2018-Feb-15 01:00N 29°47' W 092°11'0 0.0
2018-Feb-15 00:29N 29°47' W 092°11'0 0.0
2018-Feb-15 00:00N 29°47' W 092°11'0 0.0
2018-Feb-14 23:30N 29°47' W 092°11'0 0.0
2018-Feb-14 23:00N 29°47' W 092°11'0 0.0
2018-Feb-14 22:30N 29°47' W 092°11'1 2.3
2018-Feb-14 22:00N 29°47' W 092°10'3 5.4
2018-Feb-14 21:30N 29°49' W 092°08'0 0.2
2018-Feb-14 18:42N 29°49' W 092°08'0 0.0
2018-Feb-14 18:27N 29°49' W 092°08'0 0.0
2018-Feb-14 17:42N 29°49' W 092°08'0 0.0
2018-Feb-14 17:30N 29°49' W 092°08'0 0.0
2018-Feb-14 16:59N 29°49' W 092°08'0 0.0
2018-Feb-14 16:30N 29°49' W 092°08'0 0.0
2018-Feb-14 16:00N 29°49' W 092°08'0 0.0
2018-Feb-14 15:30N 29°49' W 092°08'0 0.0
2018-Feb-14 14:59N 29°49' W 092°08'0 0.0
2018-Feb-14 14:30N 29°49' W 092°08'0 0.0
2018-Feb-14 14:00N 29°49' W 092°08'0 0.0
2018-Feb-14 13:30N 29°49' W 092°08'0 0.0
2018-Feb-14 13:00N 29°49' W 092°08'2 3.9
2018-Feb-14 12:31N 29°48' W 092°09'2 4.7
2018-Feb-14 12:00N 29°47' W 092°11'0 0.0
2018-Feb-14 11:30N 29°47' W 092°11'0 0.0
2018-Feb-14 11:00N 29°47' W 092°11'0 0.0
2018-Feb-14 10:30N 29°47' W 092°11'0 0.0
2018-Feb-14 10:00N 29°47' W 092°11'0 0.0
2018-Feb-14 09:30N 29°47' W 092°11'0 0.0
2018-Feb-14 09:00N 29°47' W 092°11'0 0.0
2018-Feb-14 08:30N 29°47' W 092°11'0 0.0
2018-Feb-14 08:00N 29°47' W 092°11'0 0.0
2018-Feb-14 07:30N 29°47' W 092°11'0 0.0
2018-Feb-14 07:00N 29°47' W 092°11'0 0.0
2018-Feb-14 06:29N 29°47' W 092°11'0 0.0
2018-Feb-14 06:00N 29°47' W 092°11'0 0.0
2018-Feb-14 05:30N 29°47' W 092°11'0 0.0
2018-Feb-14 05:00N 29°47' W 092°11'0 0.0
2018-Feb-14 04:30N 29°47' W 092°11'  

Dump ship's entire track history